Time;durP1;ratioP1;P1;durP2;ratioP2;P2;SDS_P1;SDS_P2;PMS_P1;PMS_P2;Temp;Humidity;BMP_temperature;BMP_pressure;BME280_temperature;BME280_humidity;BME280_pressure;Samples;Min_cycle;Max_cycle;Signal;HPM_P1;HPM_P2
2021/12/22 00:02:48;;;;;;;33.05;18.67;;;;;;;-2.38;80.71;101227.97;2021767;86;21130;-71
2021/12/22 00:05:51;;;;;;;35.20;19.80;;;;;;;-2.36;80.87;101231.83;2032867;86;21101;-73
2021/12/22 00:08:53;;;;;;;37.28;20.40;;;;;;;-2.35;80.85;101233.51;2022629;86;21050;-71
2021/12/22 00:11:54;;;;;;;36.03;20.68;;;;;;;-2.33;80.94;101221.31;2031420;86;21150;-70
2021/12/22 00:14:56;;;;;;;38.73;20.08;;;;;;;-2.32;80.95;101229.03;2028401;86;20998;-71
2021/12/22 00:17:58;;;;;;;34.70;19.75;;;;;;;-2.30;81.01;101235.03;2025282;86;21073;-70
2021/12/22 00:21:00;;;;;;;31.97;18.30;;;;;;;-2.31;80.99;101234.65;2027461;86;21062;-74
2021/12/22 00:24:01;;;;;;;37.42;20.08;;;;;;;-2.30;81.04;101240.23;2027764;86;21764;-70
2021/12/22 00:27:03;;;;;;;35.03;20.20;;;;;;;-2.28;81.04;101241.03;2034545;86;21007;-71
2021/12/22 00:30:07;;;;;;;35.83;20.32;;;;;;;-2.26;81.20;101236.59;2028086;86;21079;-75
2021/12/22 00:33:11;;;;;;;40.67;22.82;;;;;;;-2.27;81.17;101245.31;2028256;86;21380;-70
2021/12/22 00:36:13;;;;;;;38.30;21.05;;;;;;;-2.29;81.13;101247.11;2030447;86;21138;-71
2021/12/22 00:39:15;;;;;;;40.17;20.23;;;;;;;-2.28;81.19;101246.23;2028394;86;21061;-71
2021/12/22 00:42:17;;;;;;;33.75;19.75;;;;;;;-2.23;81.24;101244.73;2033308;86;21078;-72
2021/12/22 00:45:23;;;;;;;38.70;21.30;;;;;;;-2.21;81.17;101247.30;2026139;86;21074;-72
2021/12/22 00:48:23;;;;;;;38.08;20.40;;;;;;;-2.20;81.22;101242.48;2028534;86;21049;-71
2021/12/22 00:51:24;;;;;;;38.90;19.50;;;;;;;-2.18;81.22;101241.52;2011736;86;21081;-72
2021/12/22 00:54:26;;;;;;;39.40;19.85;;;;;;;-2.19;81.20;101243.73;2025775;86;21644;-72
2021/12/22 00:57:27;;;;;;;39.67;21.40;;;;;;;-2.14;81.21;101251.34;2026181;86;20987;-70
2021/12/22 01:00:29;;;;;;;38.92;19.67;;;;;;;-2.14;81.23;101252.64;2027098;86;21069;-71
2021/12/22 01:03:33;;;;;;;37.63;20.35;;;;;;;-2.16;81.27;101255.78;2027097;86;21092;-71
2021/12/22 01:06:35;;;;;;;40.20;21.75;;;;;;;-2.18;81.30;101258.88;2030045;86;21028;-71
2021/12/22 01:09:37;;;;;;;41.33;21.12;;;;;;;-2.18;81.30;101263.63;2027971;86;21024;-74
2021/12/22 01:12:39;;;;;;;39.25;21.37;;;;;;;-2.19;81.32;101258.04;2023335;86;21169;-71
2021/12/22 01:15:41;;;;;;;42.85;21.87;;;;;;;-2.19;81.33;101267.14;2028425;86;21055;-71
2021/12/22 01:18:43;;;;;;;39.03;19.92;;;;;;;-2.18;81.32;101266.68;2031342;86;21605;-71
2021/12/22 01:21:47;;;;;;;41.83;23.62;;;;;;;-2.18;81.23;101270.58;2030915;86;21599;-71
2021/12/22 01:24:58;;;;;;;37.95;20.82;;;;;;;-2.18;81.30;101273.18;2029604;86;21075;-70
2021/12/22 01:27:52;;;;;;;41.70;22.55;;;;;;;-2.20;81.18;101275.83;2021886;86;21042;-73
2021/12/22 01:31:00;;;;;;;36.10;20.77;;;;;;;-2.18;81.14;101271.88;2035517;86;21023;-71
2021/12/22 01:33:57;;;;;;;42.80;22.60;;;;;;;-2.22;80.94;101275.48;2030845;86;21087;-74
2021/12/22 01:36:58;;;;;;;40.45;21.37;;;;;;;-2.22;80.94;101278.95;2030226;86;21541;-71
2021/12/22 01:40:04;;;;;;;39.78;22.48;;;;;;;-2.24;80.90;101282.52;2019208;86;21097;-71
2021/12/22 01:43:05;;;;;;;43.17;21.82;;;;;;;-2.21;80.89;101281.09;2027030;86;21042;-72
2021/12/22 01:46:31;;;;;;;40.17;21.95;;;;;;;-2.17;80.93;101286.11;2025869;86;21023;-73
2021/12/22 01:49:20;;;;;;;36.70;21.05;;;;;;;-2.16;80.78;101285.22;2027116;86;21075;-72
2021/12/22 01:52:22;;;;;;;39.07;20.80;;;;;;;-2.11;80.89;101286.33;2024826;86;21050;-70
2021/12/22 01:55:35;;;;;;;39.38;22.02;;;;;;;-2.03;80.92;101284.30;2034312;86;21105;-71
2021/12/22 01:58:40;;;;;;;39.75;21.77;;;;;;;-1.96;80.78;101284.47;2030476;86;21129;-71
2021/12/22 02:01:42;;;;;;;36.55;20.85;;;;;;;-1.96;80.66;101280.57;2025339;86;22180;-71
2021/12/22 02:04:46;;;;;;;40.35;21.55;;;;;;;-1.92;80.61;101282.59;2022325;86;21033;-71
2021/12/22 02:07:49;;;;;;;31.85;20.65;;;;;;;-1.89;80.44;101286.38;2030572;86;21523;-72
2021/12/22 02:10:51;;;;;;;39.67;22.60;;;;;;;-1.88;80.46;101279.83;2030955;86;21090;-70
2021/12/22 02:13:58;;;;;;;41.73;21.60;;;;;;;-1.88;80.36;101274.63;2025290;86;21113;-70
2021/12/22 02:16:55;;;;;;;43.13;21.10;;;;;;;-1.88;80.26;101279.83;2026499;86;21166;-71
2021/12/22 02:19:57;;;;;;;36.05;21.33;;;;;;;-1.88;80.27;101282.89;2032200;86;21073;-71
2021/12/22 02:22:59;;;;;;;41.73;22.60;;;;;;;-1.88;80.22;101283.73;2031572;86;21074;-72
2021/12/22 02:26:10;;;;;;;41.55;23.35;;;;;;;-1.85;80.24;101278.87;2028007;86;21022;-70
2021/12/22 02:29:17;;;;;;;44.55;22.62;;;;;;;-1.87;80.10;101284.58;2026321;86;21085;-71
2021/12/22 02:32:26;;;;;;;40.15;22.35;;;;;;;-1.95;80.03;101276.22;2003161;86;21557;-71
2021/12/22 02:35:17;;;;;;;42.17;22.40;;;;;;;-1.97;80.22;101281.49;2028750;86;21062;-74
2021/12/22 02:38:18;;;;;;;45.20;24.55;;;;;;;-2.03;80.15;101279.09;2033438;86;21053;-71
2021/12/22 02:41:26;;;;;;;41.60;23.70;;;;;;;-2.08;80.21;101275.84;2026674;86;21034;-70
2021/12/22 02:44:28;;;;;;;39.45;22.95;;;;;;;-2.11;80.14;101280.70;2031458;86;21051;-74
2021/12/22 02:47:29;;;;;;;43.33;23.77;;;;;;;-2.16;80.03;101283.08;2026379;86;21592;-73
2021/12/22 02:50:33;;;;;;;43.60;23.73;;;;;;;-2.18;80.02;101285.73;2025513;86;21023;-70
2021/12/22 02:53:42;;;;;;;45.43;24.32;;;;;;;-2.21;79.93;101281.09;2029503;86;21106;-70
2021/12/22 02:57:18;;;;;;;42.80;23.47;;;;;;;-2.28;79.93;101280.03;2024625;86;21102;-71
2021/12/22 03:00:03;;;;;;;43.00;22.77;;;;;;;-2.33;79.85;101288.45;2011221;86;21060;-74
2021/12/22 03:03:00;;;;;;;39.58;22.40;;;;;;;-2.36;79.91;101289.02;2025222;86;21054;-70
2021/12/22 03:05:49;;;;;;;47.10;23.65;;;;;;;-2.38;79.97;101277.36;2029480;86;21011;-72
2021/12/22 03:08:50;;;;;;;44.85;23.42;;;;;;;-2.39;79.94;101280.87;2025664;86;21054;-72
2021/12/22 03:11:56;;;;;;;41.92;23.77;;;;;;;-2.43;79.83;101288.83;2023465;86;21074;-70
2021/12/22 03:14:58;;;;;;;42.20;23.22;;;;;;;-2.50;79.80;101285.16;2036374;86;21172;-74
2021/12/22 03:18:00;;;;;;;44.53;23.73;;;;;;;-2.57;79.78;101288.86;2030941;86;21047;-73
2021/12/22 03:21:15;;;;;;;46.48;23.73;;;;;;;-2.63;79.92;101288.23;2026170;86;21086;-71
2021/12/22 03:24:06;;;;;;;47.73;24.43;;;;;;;-2.63;80.00;101292.14;2027470;86;21545;-70
2021/12/22 03:27:08;;;;;;;43.83;23.77;;;;;;;-2.63;79.94;101299.48;2031557;86;21085;-70
2021/12/22 03:30:11;;;;;;;46.50;24.02;;;;;;;-2.65;79.86;101297.83;2029228;86;21482;-70
2021/12/22 03:33:13;;;;;;;42.60;23.57;;;;;;;-2.67;79.92;101306.99;2031082;86;21090;-70
2021/12/22 03:36:14;;;;;;;46.68;23.95;;;;;;;-2.69;79.94;101310.55;2023622;86;21003;-70
2021/12/22 03:39:16;;;;;;;43.35;24.72;;;;;;;-2.79;79.84;101308.27;2025132;86;21074;-69
2021/12/22 03:42:18;;;;;;;45.80;22.00;;;;;;;-2.82;79.91;101320.03;2026459;86;21018;-74
2021/12/22 03:45:19;;;;;;;46.92;24.30;;;;;;;-2.84;79.93;101322.31;2026848;86;21086;-70
2021/12/22 03:48:22;;;;;;;45.43;23.07;;;;;;;-2.89;79.88;101317.72;2029055;86;21589;-71
2021/12/22 03:51:24;;;;;;;40.20;21.82;;;;;;;-2.96;79.76;101311.86;2023240;86;21081;-70
2021/12/22 03:54:26;;;;;;;43.28;24.20;;;;;;;-3.02;79.77;101318.56;2034932;86;21063;-70
2021/12/22 03:57:28;;;;;;;49.13;23.85;;;;;;;-3.07;79.75;101313.97;2022836;86;21569;-69
2021/12/22 04:00:30;;;;;;;49.18;23.92;;;;;;;-3.12;79.69;101315.89;2031427;86;21034;-72
2021/12/22 04:03:34;;;;;;;46.00;23.90;;;;;;;-3.17;79.63;101314.27;2024706;86;21540;-69
2021/12/22 04:06:35;;;;;;;42.78;23.75;;;;;;;-3.20;79.69;101311.78;2023144;86;21098;-69
2021/12/22 04:09:37;;;;;;;45.88;21.93;;;;;;;-3.23;79.54;101310.59;2030244;86;21078;-71
2021/12/22 04:12:39;;;;;;;39.20;22.27;;;;;;;-3.28;79.42;101320.72;2028281;86;21086;-71
2021/12/22 04:15:41;;;;;;;40.83;21.15;;;;;;;-3.32;79.40;101319.10;2029762;86;21781;-71
2021/12/22 04:18:43;;;;;;;36.58;20.80;;;;;;;-3.43;79.17;101316.88;2033486;86;21538;-70
2021/12/22 04:21:44;;;;;;;38.33;19.67;;;;;;;-3.51;79.18;101319.70;2025163;86;21018;-70
2021/12/22 04:24:46;;;;;;;36.80;20.20;;;;;;;-3.56;79.13;101328.06;2024762;86;21128;-70
2021/12/22 04:27:51;;;;;;;37.65;20.25;;;;;;;-3.59;79.11;101328.61;2020291;86;21069;-73
2021/12/22 04:30:52;;;;;;;35.03;19.98;;;;;;;-3.63;79.13;101332.60;2026179;86;21055;-71
2021/12/22 04:33:54;;;;;;;42.05;20.85;;;;;;;-3.64;79.10;101327.45;2030236;86;21181;-69
2021/12/22 04:36:55;;;;;;;38.90;19.02;;;;;;;-3.64;79.10;101338.67;2027410;86;21117;-70
2021/12/22 04:39:57;;;;;;;35.85;20.30;;;;;;;-3.65;79.04;101346.06;2027930;86;21198;-70
2021/12/22 04:42:58;;;;;;;36.40;19.32;;;;;;;-3.67;79.00;101345.70;2029993;86;21076;-71
2021/12/22 04:46:00;;;;;;;36.33;19.65;;;;;;;-3.65;79.07;101346.06;2033866;86;22368;-70
2021/12/22 04:49:03;;;;;;;36.65;19.65;;;;;;;-3.63;78.91;101348.17;2024292;86;21162;-70
2021/12/22 04:52:07;;;;;;;34.80;19.35;;;;;;;-3.63;78.79;101347.33;2028777;86;21066;-70
2021/12/22 04:55:08;;;;;;;37.98;20.48;;;;;;;-3.69;78.82;101344.47;2020338;86;21525;-71
2021/12/22 04:58:10;;;;;;;33.95;18.75;;;;;;;-3.67;78.89;101349.14;2026014;86;21092;-71
2021/12/22 05:01:12;;;;;;;35.20;18.75;;;;;;;-3.67;78.81;101347.00;2025247;86;21079;-71
2021/12/22 05:04:14;;;;;;;39.23;20.02;;;;;;;-3.70;78.83;101352.28;2029613;86;21704;-70
2021/12/22 05:07:16;;;;;;;36.20;20.15;;;;;;;-3.75;78.74;101349.81;2024172;86;21047;-69
2021/12/22 05:10:18;;;;;;;37.95;19.90;;;;;;;-3.80;78.64;101348.25;2028240;86;20985;-74
2021/12/22 05:13:20;;;;;;;38.25;20.27;;;;;;;-3.86;78.64;101344.09;2009803;86;21065;-71
2021/12/22 05:16:22;;;;;;;45.35;22.35;;;;;;;-3.89;78.73;101345.48;2029339;86;21002;-74
2021/12/22 05:19:23;;;;;;;39.53;21.25;;;;;;;-3.89;78.78;101351.51;2026656;86;21106;-71
2021/12/22 05:22:27;;;;;;;43.78;22.05;;;;;;;-3.91;78.73;101353.33;2029422;86;21484;-71
2021/12/22 05:25:28;;;;;;;42.83;23.55;;;;;;;-3.93;78.69;101356.85;2020345;86;21189;-71
2021/12/22 05:28:30;;;;;;;41.05;21.12;;;;;;;-4.01;78.77;101356.22;2025562;86;21006;-71
2021/12/22 05:31:32;;;;;;;42.88;19.90;;;;;;;-4.09;78.75;101353.38;2022831;86;21112;-71
2021/12/22 05:34:34;;;;;;;37.20;19.95;;;;;;;-4.13;78.91;101354.38;2030587;86;21554;-71
2021/12/22 05:37:36;;;;;;;39.67;19.67;;;;;;;-4.14;79.00;101355.70;2020967;86;21563;-74
2021/12/22 05:40:38;;;;;;;37.55;19.00;;;;;;;-4.16;79.07;101354.91;2023697;86;21046;-72
2021/12/22 05:43:48;;;;;;;38.50;20.70;;;;;;;-4.18;79.07;101358.83;1997628;86;20996;-73
2021/12/22 05:46:51;;;;;;;38.73;19.55;;;;;;;-4.15;79.12;101360.49;2020951;86;21592;-73
2021/12/22 05:49:54;;;;;;;39.65;19.42;;;;;;;-4.16;79.08;101370.02;2024798;86;21018;-71
2021/12/22 05:52:55;;;;;;;37.15;19.27;;;;;;;-4.13;79.12;101379.45;2003570;86;21065;-75
2021/12/22 05:55:58;;;;;;;38.65;19.40;;;;;;;-4.11;78.93;101378.94;1996177;86;21094;-74
2021/12/22 05:59:02;;;;;;;38.55;19.12;;;;;;;-4.08;78.93;101380.19;2019899;86;21071;-78
2021/12/22 06:02:04;;;;;;;36.23;18.20;;;;;;;-4.03;79.01;101378.73;1995261;86;21526;-74
2021/12/22 06:05:07;;;;;;;38.60;19.30;;;;;;;-4.06;78.86;101366.25;2023947;86;21038;-71
2021/12/22 06:08:09;;;;;;;37.93;20.70;;;;;;;-4.04;79.04;101384.83;2000299;86;20983;-72
2021/12/22 06:11:10;;;;;;;37.00;18.50;;;;;;;-4.02;79.06;101377.86;2025707;86;21046;-73
2021/12/22 06:14:12;;;;;;;36.60;17.48;;;;;;;-3.98;79.08;101385.95;2030468;86;21089;-72
2021/12/22 06:17:14;;;;;;;32.98;16.27;;;;;;;-3.98;79.12;101388.09;2026001;86;21633;-76
2021/12/22 06:20:15;;;;;;;31.27;15.85;;;;;;;-3.97;79.33;101385.04;2030126;86;21018;-72
2021/12/22 06:23:17;;;;;;;31.35;16.93;;;;;;;-3.91;79.44;101395.27;2028040;86;21114;-72
2021/12/22 06:26:20;;;;;;;33.28;16.30;;;;;;;-3.85;79.49;101399.83;2024224;86;21062;-75
2021/12/22 06:29:22;;;;;;;27.25;14.85;;;;;;;-3.77;79.47;101398.31;2025913;86;21156;-76
2021/12/22 06:32:23;;;;;;;26.68;14.35;;;;;;;-3.79;79.46;101403.98;2023626;86;21068;-74
2021/12/22 06:35:25;;;;;;;26.50;14.03;;;;;;;-3.77;79.61;101403.50;2023652;86;21110;-72
2021/12/22 06:38:27;;;;;;;26.07;13.80;;;;;;;-3.72;79.65;101406.79;2028690;86;21118;-73
2021/12/22 06:41:35;;;;;;;23.73;12.58;;;;;;;-3.66;79.57;101399.27;2024385;86;21569;-72
2021/12/22 06:44:36;;;;;;;24.25;13.35;;;;;;;-3.63;79.50;101396.17;2019574;86;21104;-72
2021/12/22 06:47:37;;;;;;;21.17;10.80;;;;;;;-3.57;79.47;101407.27;2031528;86;21534;-73
2021/12/22 06:50:39;;;;;;;22.07;12.35;;;;;;;-3.56;79.19;101414.14;2021377;86;21113;-71
2021/12/22 06:53:41;;;;;;;23.07;12.82;;;;;;;-3.54;79.09;101414.95;2028320;86;21581;-72
2021/12/22 06:56:42;;;;;;;22.87;12.45;;;;;;;-3.52;79.06;101424.82;2027327;86;21209;-76
2021/12/22 06:59:44;;;;;;;21.68;11.95;;;;;;;-3.48;79.02;101420.80;2027776;86;21052;-73
2021/12/22 07:02:45;;;;;;;19.73;10.05;;;;;;;-3.45;78.96;101420.71;2028843;86;21096;-70
2021/12/22 07:05:53;;;;;;;24.37;11.48;;;;;;;-3.41;78.87;101423.63;2026719;86;21134;-76
2021/12/22 07:08:55;;;;;;;26.93;13.43;;;;;;;-3.31;78.86;101422.05;2020321;86;21537;-73
2021/12/22 07:11:57;;;;;;;30.62;14.63;;;;;;;-3.23;79.13;101426.56;2030159;86;21054;-74
2021/12/22 07:14:58;;;;;;;26.23;13.65;;;;;;;-3.11;79.22;101433.13;2025374;86;21460;-75
2021/12/22 07:18:01;;;;;;;23.10;11.50;;;;;;;-3.05;79.05;101435.07;2025347;86;21605;-73
2021/12/22 07:21:04;;;;;;;19.57;11.30;;;;;;;-2.98;78.84;101433.16;2029180;86;21075;-73
2021/12/22 07:24:07;;;;;;;25.43;12.15;;;;;;;-2.93;78.63;101433.83;2030117;86;21125;-73
2021/12/22 07:27:09;;;;;;;21.48;11.65;;;;;;;-2.84;78.69;101439.22;2026818;86;21078;-74
2021/12/22 07:30:12;;;;;;;21.23;12.35;;;;;;;-2.75;78.70;101440.21;2024812;86;21543;-72
2021/12/22 07:33:14;;;;;;;20.12;12.13;;;;;;;-2.60;78.74;101438.40;2030356;86;21102;-72
2021/12/22 07:36:15;;;;;;;22.87;12.68;;;;;;;-2.37;78.84;101441.52;2036962;86;21039;-73
2021/12/22 07:39:17;;;;;;;20.75;12.00;;;;;;;-2.18;78.51;101445.66;2024320;86;22319;-72
2021/12/22 07:42:19;;;;;;;20.05;11.90;;;;;;;-2.01;78.11;101445.07;2023848;86;22212;-73
2021/12/22 07:45:20;;;;;;;21.05;11.12;;;;;;;-1.87;78.06;101446.73;2033683;86;21576;-73
2021/12/22 07:48:22;;;;;;;22.07;11.65;;;;;;;-1.75;77.55;101456.30;2032823;86;21003;-72
2021/12/22 07:51:24;;;;;;;21.70;12.55;;;;;;;-1.72;77.43;101462.69;2026692;86;21090;-73
2021/12/22 07:54:25;;;;;;;22.70;12.58;;;;;;;-1.56;77.34;101462.99;2027246;86;21086;-73
2021/12/22 07:57:27;;;;;;;20.12;11.95;;;;;;;-1.57;77.01;101463.45;2025824;86;21071;-76
2021/12/22 08:00:29;;;;;;;21.68;12.43;;;;;;;-1.67;76.70;101459.48;2024504;86;21125;-72
2021/12/22 08:03:31;;;;;;;22.62;10.95;;;;;;;-1.78;76.64;101464.22;2036171;86;21048;-72
2021/12/22 08:06:32;;;;;;;22.52;11.28;;;;;;;-1.83;76.87;101457.44;2028766;86;21033;-72
2021/12/22 08:09:36;;;;;;;20.50;10.80;;;;;;;-1.86;76.67;101474.47;2024078;86;21130;-74
2021/12/22 08:12:38;;;;;;;22.10;11.03;;;;;;;-2.00;76.44;101470.63;2006921;86;21046;-77
2021/12/22 08:15:40;;;;;;;19.82;10.82;;;;;;;-2.11;76.58;101473.16;2027754;86;21145;-73
2021/12/22 08:18:42;;;;;;;13.68;8.35;;;;;;;-2.14;76.68;101478.47;2028672;86;21160;-73
2021/12/22 08:21:44;;;;;;;20.05;11.25;;;;;;;-2.19;76.25;101473.03;2028481;86;21046;-73
2021/12/22 08:24:46;;;;;;;16.07;10.20;;;;;;;-2.21;76.40;101482.62;2026875;86;21085;-76
2021/12/22 08:28:05;;;;;;;17.62;10.03;;;;;;;-2.23;76.30;101488.32;2024930;86;21085;-79
2021/12/22 08:31:11;;;;;;;19.17;10.38;;;;;;;-2.29;76.38;101469.88;1986079;86;21614;-77
2021/12/22 08:34:22;;;;;;;18.80;9.80;;;;;;;-2.36;76.39;101461.90;1993714;86;21050;-77
2021/12/22 08:40:46;;;;;;;17.42;9.60;;;;;;;-2.24;76.61;101460.17;2002851;87;21090;-76
2021/12/22 08:43:51;;;;;;;16.60;9.25;;;;;;;-2.13;76.62;101455.45;2027215;86;21037;-76
2021/12/22 08:46:55;;;;;;;17.90;9.08;;;;;;;-1.97;76.44;101458.38;2026286;86;22023;-75
2021/12/22 08:49:57;;;;;;;15.80;9.30;;;;;;;-1.93;76.19;101461.72;2029459;86;21077;-77
2021/12/22 08:52:59;;;;;;;12.90;7.47;;;;;;;-1.96;76.07;101471.78;2010525;86;21059;-77
2021/12/22 08:56:01;;;;;;;11.57;7.55;;;;;;;-1.91;75.94;101470.33;2025463;86;21122;-77
2021/12/22 08:59:06;;;;;;;12.37;7.72;;;;;;;-1.95;75.63;101478.67;2030360;86;21287;-77
2021/12/22 09:23:38;;;;;;;11.53;6.65;;;;;;;-2.34;74.96;101489.97;2022555;87;21081;-77
2021/12/22 09:56:49;;;;;;;12.58;7.45;;;;;;;-2.12;74.41;101484.91;2022508;87;21130;-75
2021/12/22 10:29:53;;;;;;;14.18;7.12;;;;;;;-1.63;73.14;101455.88;2016313;88;21440;-74
2021/12/22 14:42:56;;;;;;;17.98;11.12;;;;;;;-0.77;70.15;101356.13;2033018;84;21151;-77
2021/12/22 14:46:01;;;;;;;18.62;9.53;;;;;;;-0.92;69.77;101356.32;2046866;84;21046;-75
2021/12/22 14:49:23;;;;;;;13.53;9.40;;;;;;;-1.03;69.78;101348.94;2025813;84;21111;-76
2021/12/22 14:52:25;;;;;;;19.67;10.38;;;;;;;-1.13;69.75;101345.00;2024901;84;21589;-76
2021/12/22 14:55:48;;;;;;;17.55;10.28;;;;;;;-1.23;69.87;101348.90;2042855;84;21327;-74
2021/12/22 14:58:57;;;;;;;23.12;11.53;;;;;;;-1.29;70.07;101353.05;2050291;84;21590;-73
2021/12/22 15:02:11;;;;;;;22.10;11.85;;;;;;;-1.33;70.02;101355.37;2033053;85;21066;-71
2021/12/22 15:05:14;;;;;;;30.48;14.90;;;;;;;-1.35;70.16;101351.55;2039591;84;21116;-73
2021/12/22 15:08:26;;;;;;;36.33;17.70;;;;;;;-1.32;70.23;101345.33;2047844;84;21141;-74
2021/12/22 15:11:41;;;;;;;38.58;17.17;;;;;;;-1.30;70.28;101345.67;2028987;85;21027;-74
2021/12/22 15:14:49;;;;;;;25.52;13.40;;;;;;;-1.31;70.21;101337.94;2031848;84;21131;-77
2021/12/22 15:17:55;;;;;;;22.40;13.80;;;;;;;-1.38;70.20;101342.52;2033594;84;21306;-75
2021/12/22 15:21:20;;;;;;;22.40;12.65;;;;;;;-1.51;70.05;101341.33;2049753;84;21568;-75
2021/12/22 15:24:28;;;;;;;23.65;12.13;;;;;;;-1.62;70.26;101334.77;2058057;84;21349;-76
2021/12/22 15:27:37;;;;;;;17.15;10.25;;;;;;;-1.73;70.31;101322.63;2046330;85;21077;-77
2021/12/22 15:30:57;;;;;;;17.30;9.90;;;;;;;-1.80;70.38;101327.68;2042879;84;21101;-76
2021/12/22 15:34:05;;;;;;;18.07;10.43;;;;;;;-1.81;70.53;101331.17;2023804;84;21120;-79
2021/12/22 15:37:20;;;;;;;22.20;9.60;;;;;;;-1.87;70.44;101327.05;2006005;84;21012;-76
2021/12/22 15:40:21;;;;;;;14.93;8.85;;;;;;;-1.90;70.60;101328.46;2047910;84;21556;-76
2021/12/22 15:43:26;;;;;;;18.85;9.48;;;;;;;-1.97;70.67;101329.61;2037726;85;21125;-76
2021/12/22 15:46:33;;;;;;;21.95;10.20;;;;;;;-2.03;70.80;101333.72;2056336;84;21365;-76
2021/12/22 15:49:33;;;;;;;18.17;10.28;;;;;;;-2.09;70.93;101328.75;2018663;85;21135;-77
2021/12/22 15:53:13;;;;;;;20.97;11.20;;;;;;;-2.13;71.08;101315.47;2056250;84;21075;-76
2021/12/22 15:56:16;;;;;;;26.85;14.28;;;;;;;-2.15;71.16;101327.22;2031967;84;21041;-77
2021/12/22 15:59:19;;;;;;;36.40;18.27;;;;;;;-2.17;71.32;101325.58;2046496;84;21122;-76
2021/12/22 16:02:26;;;;;;;56.60;25.88;;;;;;;-2.19;71.28;101330.00;2041929;85;21012;-77
2021/12/22 16:05:31;;;;;;;40.92;20.08;;;;;;;-2.22;71.44;101326.19;2057492;84;21060;-78
2021/12/22 16:08:32;;;;;;;40.45;19.80;;;;;;;-2.19;71.55;101326.11;2025360;84;21026;-76
2021/12/22 16:11:36;;;;;;;40.70;19.75;;;;;;;-2.18;71.43;101326.48;2033193;85;21095;-77
2021/12/22 16:14:39;;;;;;;47.15;18.80;;;;;;;-2.24;71.60;101326.27;2037770;85;21096;-78
2021/12/22 16:17:44;;;;;;;40.45;19.00;;;;;;;-2.20;71.60;101333.03;2057784;84;22201;-76
2021/12/22 16:20:45;;;;;;;49.10;24.40;;;;;;;-2.17;71.67;101335.98;2037739;84;21046;-75
2021/12/22 16:23:51;;;;;;;59.60;26.60;;;;;;;-2.14;71.70;101335.44;2055944;84;21552;-74
2021/12/22 16:26:54;;;;;;;45.50;24.10;;;;;;;-2.09;71.67;101334.79;2046953;84;21099;-76
2021/12/22 16:29:55;;;;;;;24.35;14.70;;;;;;;-2.09;71.63;101320.94;2035901;84;21495;-74
2021/12/22 16:32:57;;;;;;;20.17;11.30;;;;;;;-2.12;71.62;101323.66;2035276;84;21132;-78
2021/12/22 16:36:01;;;;;;;18.32;10.28;;;;;;;-2.13;71.66;101325.88;2058032;84;21097;-78
2021/12/22 16:39:05;;;;;;;17.07;9.58;;;;;;;-2.18;71.80;101316.09;2042716;84;21107;-77
2021/12/22 16:42:07;;;;;;;16.57;8.53;;;;;;;-2.24;71.85;101315.02;2028393;85;21104;-77
2021/12/22 16:45:10;;;;;;;18.25;9.45;;;;;;;-2.32;71.88;101319.19;2044324;84;21086;-78
2021/12/22 16:48:12;;;;;;;15.70;9.00;;;;;;;-2.41;72.15;101312.56;2038970;84;21914;-77
2021/12/22 17:21:14;;;;;;;36.45;19.00;;;;;;;-2.69;72.75;101303.59;2049309;86;21131;-74
2021/12/22 17:54:20;;;;;;;26.20;14.60;;;;;;;-3.33;73.48;101287.11;2071177;83;21099;-75
2021/12/22 18:22:56;;;;;;;34.18;14.93;;;;;;;-3.45;73.92;101252.48;2074964;85;21137;-75
2021/12/22 18:47:05;;;;;;;34.98;15.58;;;;;;;-3.55;73.93;101250.61;2050408;84;21123;-76
2021/12/22 18:50:08;;;;;;;30.52;14.58;;;;;;;-3.55;73.99;101252.37;2057198;83;21145;-76
2021/12/22 18:53:10;;;;;;;35.98;16.17;;;;;;;-3.58;73.97;101242.09;2048711;84;21090;-76
2021/12/22 18:56:11;;;;;;;36.05;16.25;;;;;;;-3.61;74.00;101242.58;2047530;84;21098;-76
2021/12/22 18:59:13;;;;;;;31.97;16.07;;;;;;;-3.61;74.04;101243.87;2061175;84;21622;-76
2021/12/22 19:10:47;;;;;;;41.15;16.57;;;;;;;-3.58;73.95;101240.79;2050521;86;21128;-75
2021/12/22 19:56:04;;;;;;;51.40;19.95;;;;;;;-3.85;74.10;101183.27;2084192;85;21128;-75
2021/12/22 20:24:30;;;;;;;55.63;21.93;;;;;;;-3.79;74.23;101169.25;2082767;84;21419;-76
2021/12/22 20:31:47;;;;;;;51.48;19.45;;;;;;;-3.78;74.00;101157.97;2073158;84;21181;-77
2021/12/22 20:34:49;;;;;;;44.30;20.05;;;;;;;-3.77;74.05;101153.62;2056597;84;21022;-77
2021/12/22 20:37:52;;;;;;;48.98;20.85;;;;;;;-3.78;74.04;101151.94;2070634;84;21400;-77
2021/12/22 20:40:54;;;;;;;48.87;21.75;;;;;;;-3.76;74.05;101149.70;2050048;84;21152;-77
2021/12/22 20:43:55;;;;;;;47.15;21.27;;;;;;;-3.76;73.94;101138.03;2054618;84;21042;-77
2021/12/22 20:46:57;;;;;;;52.62;22.13;;;;;;;-3.75;74.01;101134.98;2059614;84;21927;-77
2021/12/22 20:49:59;;;;;;;44.77;21.37;;;;;;;-3.78;74.00;101122.95;2064651;84;21765;-77
2021/12/22 20:53:01;;;;;;;46.63;21.17;;;;;;;-3.81;73.98;101116.58;2034503;84;21124;-76
2021/12/22 20:56:06;;;;;;;47.62;21.60;;;;;;;-3.88;73.91;101117.24;2057703;84;21059;-77
2021/12/22 20:59:07;;;;;;;48.15;21.65;;;;;;;-3.91;74.02;101110.02;2051080;84;21089;-77
2021/12/22 21:02:09;;;;;;;51.30;22.00;;;;;;;-3.93;74.00;101111.80;2030148;84;21066;-77
2021/12/22 21:05:12;;;;;;;51.95;21.50;;;;;;;-3.95;74.03;101109.25;2062882;84;21039;-76
2021/12/22 21:08:13;;;;;;;50.30;22.40;;;;;;;-3.99;74.01;101108.97;2064098;84;21070;-77
2021/12/22 21:11:17;;;;;;;49.67;23.35;;;;;;;-4.02;74.07;101106.93;2064982;84;21022;-77
2021/12/22 21:14:20;;;;;;;50.78;22.52;;;;;;;-4.03;73.98;101114.29;2065723;84;21878;-77
2021/12/22 21:17:21;;;;;;;51.58;21.85;;;;;;;-4.14;73.97;101114.20;2063868;84;21034;-78
2021/12/22 21:20:25;;;;;;;51.40;22.32;;;;;;;-4.12;74.14;101117.57;2061196;84;21007;-77
2021/12/22 21:23:26;;;;;;;52.83;23.18;;;;;;;-4.11;74.13;101115.82;2054041;84;21029;-77
2021/12/22 21:26:28;;;;;;;54.65;25.27;;;;;;;-4.13;74.25;101117.19;2066175;84;21335;-76
2021/12/22 21:29:30;;;;;;;56.75;24.80;;;;;;;-4.09;74.27;101122.66;2061411;84;21557;-77
2021/12/22 21:32:31;;;;;;;59.15;27.40;;;;;;;-4.06;74.20;101114.77;2053465;84;21383;-78
2021/12/22 21:35:36;;;;;;;65.50;26.15;;;;;;;-4.04;74.25;101124.27;2061188;83;21086;-77
2021/12/22 21:38:38;;;;;;;60.38;25.92;;;;;;;-4.10;74.26;101120.12;2050373;83;21350;-77
2021/12/22 21:41:40;;;;;;;64.58;26.75;;;;;;;-4.13;74.37;101117.19;2056252;84;21022;-77
2021/12/22 21:44:41;;;;;;;57.45;25.48;;;;;;;-4.16;74.47;101118.58;2054332;84;21066;-77
2021/12/22 21:47:43;;;;;;;63.75;27.27;;;;;;;-4.20;74.59;101118.26;2063589;84;21060;-80
2021/12/22 21:50:46;;;;;;;65.57;26.52;;;;;;;-4.22;74.65;101113.59;2047632;84;21066;-77
2021/12/22 21:53:48;;;;;;;59.00;25.82;;;;;;;-4.23;74.66;101113.62;2057533;84;21087;-77
2021/12/22 21:56:50;;;;;;;67.97;26.68;;;;;;;-4.25;74.70;101100.73;2049018;84;21069;-77
2021/12/22 21:59:51;;;;;;;70.10;26.80;;;;;;;-4.25;74.78;101098.56;2056027;83;21058;-77
2021/12/22 22:02:53;;;;;;;70.95;29.23;;;;;;;-4.28;74.80;101100.80;2052232;84;21347;-76
2021/12/22 22:05:55;;;;;;;67.30;26.77;;;;;;;-4.30;74.82;101102.16;2055494;84;21869;-77
2021/12/22 22:08:56;;;;;;;72.00;26.85;;;;;;;-4.29;74.92;101105.14;2067254;84;21153;-77
2021/12/22 22:11:58;;;;;;;70.60;28.17;;;;;;;-4.30;74.91;101103.91;2061347;84;21845;-77
2021/12/22 22:15:00;;;;;;;71.45;27.30;;;;;;;-4.33;74.96;101097.53;2051509;84;21305;-77
2021/12/22 22:18:02;;;;;;;73.72;27.50;;;;;;;-4.35;74.97;101091.55;2060427;84;21117;-76
2021/12/22 22:21:07;;;;;;;74.42;26.97;;;;;;;-4.33;75.07;101089.31;2053506;84;21038;-76
2021/12/22 22:24:10;;;;;;;65.67;26.57;;;;;;;-4.34;75.07;101086.75;2059175;84;21071;-77
2021/12/22 22:27:14;;;;;;;76.07;29.00;;;;;;;-4.36;75.13;101080.34;2059263;84;21060;-77
2021/12/22 22:30:19;;;;;;;60.70;26.82;;;;;;;-4.41;75.20;101067.97;2044978;85;21001;-76
2021/12/22 22:33:20;;;;;;;65.78;27.10;;;;;;;-4.44;75.25;101074.55;2057906;84;21152;-78
2021/12/22 22:36:22;;;;;;;66.12;28.23;;;;;;;-4.44;75.30;101071.11;2066010;84;21363;-77